Time;durP1;ratioP1;P1;durP2;ratioP2;P2;SDS_P1;SDS_P2;PMS_P1;PMS_P2;Temp;Humidity;BMP_temperature;BMP_pressure;BME280_temperature;BME280_humidity;BME280_pressure;Samples;Min_cycle;Max_cycle;Signal;HPM_P1;HPM_P2
2023/10/13 00:01:43;;;;;;;14.27;7.53;;;17.10;99.90;;;;;;5015035;28;20293;-46
2023/10/13 00:04:16;;;;;;;12.93;7.60;;;17.10;99.90;;;;;;5015043;28;20178;-47
2023/10/13 00:06:42;;;;;;;17.57;8.13;;;17.10;99.90;;;;;;5013452;28;20224;-48
2023/10/13 00:09:14;;;;;;;14.70;7.50;;;17.10;99.90;;;;;;5014610;28;20182;-48
2023/10/13 00:11:47;;;;;;;10.20;7.57;;;17.00;99.90;;;;;;5013996;28;20213;-48
2023/10/13 00:14:20;;;;;;;11.70;7.17;;;17.00;99.90;;;;;;5014815;28;20188;-47
2023/10/13 00:17:07;;;;;;;13.03;7.13;;;17.00;99.90;;;;;;5014573;28;20253;-47
2023/10/13 00:19:37;;;;;;;14.80;8.07;;;17.00;99.90;;;;;;5012848;28;20233;-47
2023/10/13 00:22:15;;;;;;;12.43;7.63;;;17.00;99.90;;;;;;5014542;28;20261;-48
2023/10/13 00:24:47;;;;;;;9.73;7.47;;;17.00;99.90;;;;;;5014285;28;20198;-46
2023/10/13 00:27:30;;;;;;;13.83;7.30;;;17.00;99.90;;;;;;5014482;28;20253;-45
2023/10/13 00:32:55;;;;;;;17.73;7.57;;;17.00;99.90;;;;;;5014414;28;20203;-46
2023/10/13 00:35:25;;;;;;;11.23;7.43;;;17.00;99.90;;;;;;5014215;28;20166;-48
2023/10/13 00:38:04;;;;;;;14.70;8.27;;;17.00;99.90;;;;;;5013906;28;20572;-48
2023/10/13 00:46:33;;;;;;;11.60;7.80;;;17.10;99.90;;;;;;5013667;28;20184;-48
2023/10/13 00:48:51;;;;;;;12.00;7.17;;;17.10;99.90;;;;;;5011782;28;20212;-47
2023/10/13 00:51:32;;;;;;;12.13;7.80;;;17.10;99.90;;;;;;5012944;28;20207;-47
2023/10/13 00:54:06;;;;;;;8.53;7.40;;;17.10;99.90;;;;;;5013809;28;20552;-48
2023/10/13 00:56:33;;;;;;;10.80;7.10;;;17.10;99.90;;;;;;5013840;28;20176;-48
2023/10/13 00:59:02;;;;;;;10.67;7.50;;;17.10;99.90;;;;;;5014317;28;20529;-48
2023/10/13 01:01:40;;;;;;;12.47;8.20;;;17.10;99.90;;;;;;5012880;28;20579;-47
2023/10/13 01:04:08;;;;;;;14.27;7.20;;;17.10;99.90;;;;;;5013775;28;20189;-48
2023/10/13 01:06:40;;;;;;;11.23;7.30;;;17.10;99.90;;;;;;5012630;28;20195;-47
2023/10/13 01:09:16;;;;;;;12.07;7.73;;;17.10;99.90;;;;;;5013749;28;20169;-48
2023/10/13 01:11:52;;;;;;;11.70;7.53;;;17.10;99.90;;;;;;5012396;28;20688;-46
2023/10/13 01:14:27;;;;;;;14.03;7.73;;;17.20;99.90;;;;;;5012304;28;20660;-48
2023/10/13 01:16:55;;;;;;;11.87;7.67;;;17.20;99.90;;;;;;5013625;28;20174;-48
2023/10/13 01:19:27;;;;;;;14.33;7.83;;;17.20;99.90;;;;;;5013424;28;20181;-48
2023/10/13 01:22:03;;;;;;;15.73;7.93;;;17.20;99.90;;;;;;5013590;28;20178;-48
2023/10/13 01:24:34;;;;;;;12.27;7.67;;;17.10;99.90;;;;;;5013833;28;20231;-47
2023/10/13 01:27:20;;;;;;;11.97;7.30;;;17.20;99.90;;;;;;5012355;28;20649;-46
2023/10/13 01:29:55;;;;;;;12.13;7.53;;;17.10;99.90;;;;;;5012220;28;20217;-48
2023/10/13 01:32:23;;;;;;;11.13;7.30;;;17.20;99.90;;;;;;5014079;28;20157;-49
2023/10/13 01:34:55;;;;;;;12.43;7.17;;;17.20;99.90;;;;;;5012275;28;20181;-49
2023/10/13 01:37:27;;;;;;;17.23;7.60;;;17.20;99.90;;;;;;5012178;28;20285;-48
2023/10/13 01:39:54;;;;;;;15.73;8.30;;;17.20;99.90;;;;;;4995785;28;20219;-46
2023/10/13 01:42:21;;;;;;;12.77;7.90;;;17.20;99.90;;;;;;5015955;28;20264;-46
2023/10/13 01:44:50;;;;;;;13.60;7.67;;;17.20;99.90;;;;;;5017505;28;20193;-46
2023/10/13 01:47:20;;;;;;;11.97;7.50;;;17.20;99.90;;;;;;5016010;28;20668;-48
2023/10/13 01:49:50;;;;;;;13.97;8.17;;;17.20;99.90;;;;;;5017184;28;20205;-49
2023/10/13 01:52:19;;;;;;;13.57;7.73;;;17.10;99.90;;;;;;5016046;28;20208;-46
2023/10/13 01:54:50;;;;;;;16.23;8.73;;;17.10;99.90;;;;;;5017256;28;20233;-48
2023/10/13 01:57:19;;;;;;;16.17;8.50;;;17.20;99.90;;;;;;5015891;28;20675;-48
2023/10/13 01:59:47;;;;;;;11.97;8.00;;;17.20;99.90;;;;;;5000025;28;20260;-48
2023/10/13 02:02:16;;;;;;;13.27;7.93;;;17.10;99.90;;;;;;5017117;28;20696;-48
2023/10/13 02:04:56;;;;;;;16.53;9.40;;;17.20;99.90;;;;;;5017276;28;20272;-47
2023/10/13 02:07:34;;;;;;;17.67;8.57;;;17.10;99.90;;;;;;5017264;28;20201;-47
2023/10/13 02:10:05;;;;;;;12.40;9.03;;;17.20;99.90;;;;;;5017077;28;20609;-49
2023/10/13 02:13:28;;;;;;;18.17;9.60;;;17.20;99.90;;;;;;5015778;28;20170;-48
2023/10/13 02:16:03;;;;;;;15.87;7.87;;;17.20;99.90;;;;;;5017316;28;20185;-49
2023/10/13 02:18:41;;;;;;;16.97;9.20;;;17.20;99.90;;;;;;5017401;28;20614;-47
2023/10/13 02:21:14;;;;;;;18.63;9.23;;;17.20;99.90;;;;;;5015611;28;20785;-48
2023/10/13 02:23:44;;;;;;;12.30;9.03;;;17.20;99.90;;;;;;5015606;28;20201;-49
2023/10/13 02:26:15;;;;;;;17.77;8.97;;;17.20;99.90;;;;;;5016649;28;20626;-48
2023/10/13 02:28:51;;;;;;;21.50;9.63;;;17.20;99.90;;;;;;5013863;28;20589;-49
2023/10/13 02:31:19;;;;;;;14.33;9.47;;;17.20;99.90;;;;;;5000431;28;20209;-48
2023/10/13 02:33:45;;;;;;;17.57;9.03;;;17.20;99.90;;;;;;5016459;28;20539;-49
2023/10/13 02:36:12;;;;;;;17.73;9.30;;;17.20;99.90;;;;;;5016306;28;20280;-48
2023/10/13 02:38:50;;;;;;;14.87;8.93;;;17.20;99.90;;;;;;5016220;28;20328;-47
2023/10/13 02:41:26;;;;;;;18.80;9.70;;;17.20;99.90;;;;;;5115350;23;20233;-89
2023/10/13 02:43:52;;;;;;;19.33;8.57;;;17.20;99.90;;;;;;5019506;28;20244;-88
2023/10/13 02:46:22;;;;;;;15.80;8.90;;;17.20;99.90;;;;;;5018802;28;20531;-90
2023/10/13 02:48:57;;;;;;;14.90;8.60;;;17.20;99.90;;;;;;5018793;28;20670;-89
2023/10/13 02:51:31;;;;;;;12.97;8.37;;;17.20;99.90;;;;;;5019482;28;20645;-88
2023/10/13 02:54:02;;;;;;;16.40;8.47;;;17.20;99.90;;;;;;5020352;28;20176;-87
2023/10/13 02:56:29;;;;;;;12.37;8.00;;;17.20;99.90;;;;;;5021422;28;20182;-87
2023/10/13 02:59:04;;;;;;;14.20;8.00;;;17.20;99.90;;;;;;5020463;28;20204;-88
2023/10/13 03:01:36;;;;;;;12.70;7.53;;;17.20;99.90;;;;;;5022382;28;20185;-89
2023/10/13 03:04:03;;;;;;;17.63;8.40;;;17.30;99.90;;;;;;5022985;28;20158;-87
2023/10/13 03:06:32;;;;;;;14.33;7.90;;;17.30;99.90;;;;;;5005388;28;20189;-85
2023/10/13 03:09:15;;;;;;;17.73;8.13;;;17.20;99.90;;;;;;5022772;28;20236;-91
2023/10/13 03:11:50;;;;;;;15.20;8.07;;;17.30;99.90;;;;;;5021188;28;20205;-90
2023/10/13 03:14:28;;;;;;;11.97;8.13;;;17.30;99.90;;;;;;5017789;28;20173;-86
2023/10/13 03:17:02;;;;;;;15.20;7.67;;;17.30;99.90;;;;;;5022498;28;20182;-91
2023/10/13 03:19:32;;;;;;;13.17;7.10;;;17.30;99.90;;;;;;5023082;28;20193;-90
2023/10/13 03:22:12;;;;;;;12.63;7.10;;;17.30;99.90;;;;;;5022209;28;20178;-87
2023/10/13 03:24:44;;;;;;;11.33;7.00;;;17.30;99.90;;;;;;5021741;28;20184;-91
2023/10/13 03:27:16;;;;;;;12.83;7.30;;;17.30;99.90;;;;;;5022187;28;20217;-90
2023/10/13 03:29:43;;;;;;;11.63;7.07;;;17.30;99.90;;;;;;5022361;28;20208;-89
2023/10/13 03:32:15;;;;;;;14.20;7.17;;;17.30;99.90;;;;;;5022554;28;20193;-92
2023/10/13 03:35:12;;;;;;;15.13;7.27;;;17.30;99.90;;;;;;5023457;28;20182;-88
2023/10/13 03:37:38;;;;;;;11.00;6.33;;;17.30;99.90;;;;;;5022075;28;20189;-88
2023/10/13 03:43:04;;;;;;;10.70;6.70;;;17.30;99.90;;;;;;5023912;28;20193;-90
2023/10/13 03:45:39;;;;;;;12.60;6.70;;;17.40;99.90;;;;;;5023219;28;20178;-91
2023/10/13 03:51:03;;;;;;;11.97;6.30;;;17.40;99.90;;;;;;5022337;28;20264;-89
2023/10/13 03:53:34;;;;;;;12.27;6.10;;;17.40;99.90;;;;;;5021960;28;20169;-90
2023/10/13 03:56:08;;;;;;;10.67;6.33;;;17.50;99.90;;;;;;5020672;28;20173;-90
2023/10/13 03:58:35;;;;;;;10.87;6.50;;;17.40;99.90;;;;;;5020690;28;20197;-89
2023/10/13 04:01:00;;;;;;;10.97;5.63;;;17.40;99.90;;;;;;5020649;28;20181;-88
2023/10/13 04:03:38;;;;;;;8.40;6.37;;;17.40;99.90;;;;;;5019798;28;20192;-91
2023/10/13 04:06:08;;;;;;;12.00;6.33;;;17.40;99.90;;;;;;5019718;28;20208;-90
2023/10/13 04:16:38;;;;;;;12.20;6.53;;;17.40;99.90;;;;;;5019328;28;20209;-90
2023/10/13 04:19:08;;;;;;;11.00;5.63;;;17.40;99.90;;;;;;5018100;28;20574;-90
2023/10/13 04:21:42;;;;;;;11.10;5.83;;;17.40;99.90;;;;;;5019326;28;20187;-88
2023/10/13 04:29:48;;;;;;;10.10;5.80;;;17.50;99.90;;;;;;5019407;28;20231;-88
2023/10/13 04:32:15;;;;;;;7.20;5.20;;;17.60;99.90;;;;;;5017212;28;20173;-87
2023/10/13 04:34:55;;;;;;;11.37;5.40;;;17.50;99.90;;;;;;5016707;28;20181;-91
2023/10/13 04:37:32;;;;;;;13.03;6.23;;;17.50;99.90;;;;;;5017320;28;20269;-87
2023/10/13 04:40:10;;;;;;;11.53;5.03;;;17.50;99.90;;;;;;5018111;28;20208;-88
2023/10/13 04:42:56;;;;;;;10.40;5.20;;;17.50;99.90;;;;;;5017183;28;20211;-91
2023/10/13 04:50:50;;;;;;;13.60;4.47;;;17.50;99.90;;;;;;5017184;28;20202;-90
2023/10/13 04:53:59;;;;;;;13.23;5.40;;;17.60;99.90;;;;;;5017951;28;20173;-86
2023/10/13 05:02:42;;;;;;;10.90;5.77;;;17.80;99.90;;;;;;5019483;28;20228;-89
2023/10/13 05:52:18;;;;;;;11.30;4.30;;;17.90;99.90;;;;;;4999124;28;20202;-47
2023/10/13 06:28:51;;;;;;;17.27;5.87;;;18.00;99.90;;;;;;5015854;28;20169;-43
2023/10/13 06:31:26;;;;;;;15.83;5.17;;;17.90;99.90;;;;;;5016524;28;20213;-44
2023/10/13 06:33:55;;;;;;;16.50;5.33;;;17.90;99.90;;;;;;4998954;28;20691;-42
2023/10/13 06:36:21;;;;;;;11.23;5.43;;;17.90;99.90;;;;;;5016486;28;20675;-43
2023/10/13 06:38:55;;;;;;;14.57;5.83;;;17.90;99.90;;;;;;5016689;28;20170;-41
2023/10/13 06:44:45;;;;;;;15.70;5.33;;;17.90;99.90;;;;;;5016691;28;20592;-43
2023/10/13 06:47:13;;;;;;;11.90;4.93;;;17.90;99.90;;;;;;4992231;28;20203;-44
2023/10/13 06:49:43;;;;;;;12.53;6.20;;;17.90;99.90;;;;;;5016202;28;20228;-48
2023/10/13 06:52:10;;;;;;;14.37;5.90;;;18.00;99.90;;;;;;5016103;28;20185;-49
2023/10/13 06:54:39;;;;;;;12.03;5.73;;;18.00;99.90;;;;;;4998503;28;20192;-47
2023/10/13 06:57:14;;;;;;;15.23;6.03;;;18.00;99.90;;;;;;5016250;28;20716;-50
2023/10/13 06:59:41;;;;;;;17.87;5.97;;;18.00;99.90;;;;;;5016478;28;20616;-47
2023/10/13 07:02:20;;;;;;;16.13;5.77;;;18.00;99.90;;;;;;5016223;28;20236;-47
2023/10/13 07:04:56;;;;;;;23.03;6.60;;;18.00;99.90;;;;;;5015862;28;20193;-47
2023/10/13 07:07:23;;;;;;;13.90;5.87;;;18.10;99.90;;;;;;5015950;28;20173;-47
2023/10/13 07:10:00;;;;;;;18.10;5.37;;;18.10;99.90;;;;;;4997949;28;20605;-48
2023/10/13 07:12:27;;;;;;;14.67;5.87;;;18.10;99.90;;;;;;5016247;28;20548;-46
2023/10/13 07:15:10;;;;;;;17.70;5.83;;;18.10;99.90;;;;;;4998164;28;20197;-46
2023/10/13 07:17:44;;;;;;;13.10;5.60;;;18.10;99.90;;;;;;5000751;28;20660;-47
2023/10/13 07:20:47;;;;;;;12.40;4.97;;;18.20;99.90;;;;;;5015578;28;20322;-46
2023/10/13 07:23:08;;;;;;;17.20;5.67;;;18.20;99.90;;;;;;5013374;28;20268;-47
2023/10/13 07:25:37;;;;;;;18.13;5.43;;;18.30;99.90;;;;;;4997397;28;20593;-46
2023/10/13 07:28:08;;;;;;;14.23;5.57;;;18.30;99.90;;;;;;4997598;28;20204;-49
2023/10/13 07:31:08;;;;;;;12.93;5.93;;;18.30;99.90;;;;;;4966412;28;20217;-47
2023/10/13 07:33:36;;;;;;;16.00;5.73;;;18.40;99.90;;;;;;5010499;28;20722;-48
2023/10/13 07:36:15;;;;;;;15.27;5.20;;;18.40;99.90;;;;;;5015644;28;20181;-48
2023/10/13 07:38:59;;;;;;;19.60;5.07;;;18.40;99.90;;;;;;5012091;28;20197;-48
2023/10/13 07:41:30;;;;;;;15.17;4.80;;;18.50;99.90;;;;;;4999672;28;20244;-49
2023/10/13 07:44:02;;;;;;;17.40;4.93;;;18.50;99.90;;;;;;5015189;28;20170;-48
2023/10/13 07:46:31;;;;;;;13.80;5.33;;;18.50;99.90;;;;;;4996504;28;20190;-46
2023/10/13 07:49:09;;;;;;;17.93;5.17;;;18.50;99.90;;;;;;4981352;28;20630;-48
2023/10/13 07:51:44;;;;;;;21.90;4.63;;;18.60;99.90;;;;;;4999774;28;20217;-49
2023/10/13 07:54:14;;;;;;;23.83;5.13;;;18.50;99.90;;;;;;5015409;28;20194;-48
2023/10/13 07:56:41;;;;;;;16.37;5.03;;;18.60;99.90;;;;;;5015311;28;20232;-48
2023/10/13 07:59:09;;;;;;;15.60;5.10;;;18.60;99.90;;;;;;5015460;28;20170;-47
2023/10/13 08:01:35;;;;;;;13.57;5.10;;;18.70;99.90;;;;;;5014942;28;20201;-49
2023/10/13 08:04:28;;;;;;;10.30;5.03;;;18.70;99.90;;;;;;5014921;28;20173;-46
2023/10/13 08:07:02;;;;;;;13.97;4.93;;;18.70;99.90;;;;;;5015252;28;20170;-48
2023/10/13 08:09:40;;;;;;;15.03;5.07;;;18.80;99.90;;;;;;5014736;28;20196;-48
2023/10/13 08:12:11;;;;;;;16.10;4.27;;;18.80;99.90;;;;;;4998748;28;20185;-47
2023/10/13 08:14:38;;;;;;;10.63;4.37;;;18.90;99.90;;;;;;4998345;28;20178;-48
2023/10/13 08:17:10;;;;;;;9.47;4.40;;;19.00;99.90;;;;;;5014649;28;20225;-47
2023/10/13 08:19:39;;;;;;;13.03;5.17;;;19.00;99.90;;;;;;4997327;28;20625;-48
2023/10/13 08:32:54;;;;;;;13.17;4.77;;;19.30;99.90;;;;;;5014789;28;20250;-42
2023/10/13 08:37:59;;;;;;;16.43;5.27;;;19.50;99.90;;;;;;5014832;28;20165;-42
2023/10/13 08:41:25;;;;;;;11.43;4.70;;;19.60;99.90;;;;;;5013689;28;20351;-42
2023/10/13 08:43:43;;;;;;;11.63;4.67;;;19.70;99.90;;;;;;5013919;28;20189;-41
2023/10/13 08:46:09;;;;;;;16.23;4.83;;;19.90;99.90;;;;;;5014094;28;20176;-43
2023/10/13 08:48:37;;;;;;;14.43;5.47;;;20.00;99.90;;;;;;4996441;28;20185;-42
2023/10/13 08:51:09;;;;;;;14.00;5.20;;;20.10;99.90;;;;;;5013680;28;20219;-42
2023/10/13 08:53:58;;;;;;;19.40;5.50;;;20.30;99.90;;;;;;4996147;28;20201;-43
2023/10/13 08:56:34;;;;;;;10.03;5.13;;;20.40;99.90;;;;;;4996340;28;20202;-44
2023/10/13 08:59:05;;;;;;;16.97;5.63;;;20.50;99.90;;;;;;4996271;28;20177;-43
2023/10/13 09:01:48;;;;;;;13.40;5.07;;;20.60;99.90;;;;;;4996130;28;20214;-42
2023/10/13 09:04:21;;;;;;;11.27;5.40;;;20.70;99.90;;;;;;5014627;28;20192;-43
2023/10/13 09:24:01;;;;;;;11.93;5.90;;;21.40;99.90;;;;;;5013629;28;20265;-43
2023/10/13 09:26:35;;;;;;;11.53;5.77;;;21.60;99.90;;;;;;4997857;28;20220;-44
2023/10/13 09:29:18;;;;;;;10.30;6.07;;;21.70;99.90;;;;;;5013631;28;20173;-44
2023/10/13 09:31:45;;;;;;;8.90;5.10;;;21.70;99.90;;;;;;5013546;28;20583;-44
2023/10/13 09:34:23;;;;;;;10.43;5.60;;;21.80;99.90;;;;;;5013497;28;20176;-42
2023/10/13 09:37:10;;;;;;;13.37;5.90;;;21.90;99.90;;;;;;4993088;28;20225;-44
2023/10/13 09:39:52;;;;;;;10.77;5.57;;;21.90;99.90;;;;;;5005275;28;20198;-43
2023/10/13 09:42:23;;;;;;;12.97;6.00;;;22.00;99.90;;;;;;5012748;28;20196;-43
2023/10/13 09:44:55;;;;;;;15.00;5.90;;;22.00;99.90;;;;;;4980282;28;20580;-43
2023/10/13 09:47:29;;;;;;;12.03;6.03;;;22.00;99.90;;;;;;5013346;28;20166;-42
2023/10/13 09:50:04;;;;;;;10.67;6.07;;;22.00;99.90;;;;;;4996622;28;20211;-42
2023/10/13 09:52:31;;;;;;;7.67;5.40;;;22.00;99.90;;;;;;4997299;28;20165;-44
2023/10/13 09:55:31;;;;;;;12.97;5.17;;;22.00;99.90;;;;;;5013375;28;20178;-43
2023/10/13 09:58:13;;;;;;;9.47;5.80;;;22.00;99.90;;;;;;5013382;28;20629;-43
2023/10/13 10:00:57;;;;;;;15.07;6.20;;;22.00;99.90;;;;;;5013587;28;20298;-47
2023/10/13 10:04:13;;;;;;;9.57;5.87;;;22.00;99.90;;;;;;4985938;28;20169;-42
2023/10/13 10:07:04;;;;;;;12.57;5.80;;;22.20;99.90;;;;;;4999040;28;20189;-42
2023/10/13 10:09:43;;;;;;;8.77;5.70;;;22.30;99.90;;;;;;5017197;28;20201;-44
2023/10/13 10:12:50;;;;;;;8.77;5.87;;;22.30;99.90;;;;;;5014709;28;20196;-42
2023/10/13 10:15:43;;;;;;;9.20;5.33;;;22.40;99.90;;;;;;5016740;28;20177;-44
2023/10/13 10:18:25;;;;;;;11.33;5.40;;;22.50;99.90;;;;;;5017116;28;20170;-41
2023/10/13 10:20:56;;;;;;;10.20;5.60;;;22.60;99.90;;;;;;4998598;28;20213;-42
2023/10/13 10:23:35;;;;;;;10.77;5.67;;;22.80;99.90;;;;;;5016779;28;20170;-41
2023/10/13 10:26:11;;;;;;;15.27;6.00;;;22.80;99.90;;;;;;4984224;28;20193;-43
2023/10/13 10:28:47;;;;;;;10.77;5.93;;;22.80;99.90;;;;;;5016641;28;20193;-43
2023/10/13 10:31:17;;;;;;;10.27;5.63;;;22.80;99.90;;;;;;5017317;28;20228;-45
2023/10/13 10:33:43;;;;;;;11.20;5.57;;;22.90;99.90;;;;;;4998999;28;20207;-41
2023/10/13 10:36:14;;;;;;;10.37;6.10;;;22.90;99.90;;;;;;4998901;28;20182;-44
2023/10/13 10:38:58;;;;;;;10.30;5.43;;;22.90;99.90;;;;;;5016717;28;20177;-43
2023/10/13 10:41:38;;;;;;;12.47;5.33;;;23.00;99.90;;;;;;5016296;28;20212;-42
2023/10/13 10:45:05;;;;;;;13.13;5.07;;;23.00;99.90;;;;;;5016566;28;20185;-42
2023/10/13 10:47:36;;;;;;;9.77;5.00;;;23.00;99.90;;;;;;4999468;28;20206;-43
2023/10/13 10:58:29;;;;;;;9.73;5.17;;;23.10;99.90;;;;;;5013120;28;20224;-42
2023/10/13 11:01:10;;;;;;;17.17;5.47;;;23.10;99.90;;;;;;5015916;28;20288;-42
2023/10/13 11:03:38;;;;;;;11.80;5.47;;;23.00;99.90;;;;;;5015482;28;20212;-43
2023/10/13 11:06:15;;;;;;;14.90;5.90;;;23.00;99.90;;;;;;5015914;28;20667;-43
2023/10/13 11:08:43;;;;;;;14.47;5.07;;;23.10;99.90;;;;;;5014254;28;20200;-42
2023/10/13 11:11:17;;;;;;;15.83;6.10;;;23.10;99.90;;;;;;5014908;28;20217;-43
2023/10/13 11:16:51;;;;;;;14.43;5.63;;;23.20;99.90;;;;;;4993108;28;20186;-43
2023/10/13 11:19:42;;;;;;;14.43;5.83;;;23.20;99.90;;;;;;4981843;28;20186;-43
2023/10/13 11:22:41;;;;;;;14.10;5.63;;;23.20;99.90;;;;;;5008474;28;20677;-42
2023/10/13 11:25:16;;;;;;;17.63;5.53;;;23.30;99.90;;;;;;5014932;28;20709;-43
2023/10/13 11:30:24;;;;;;;18.77;5.23;;;23.30;99.90;;;;;;4999289;28;20608;-43
2023/10/13 11:33:09;;;;;;;17.77;5.60;;;23.30;99.90;;;;;;4982470;28;20196;-42
2023/10/13 11:35:55;;;;;;;15.90;5.53;;;23.30;99.90;;;;;;4982007;28;20185;-43
2023/10/13 11:38:27;;;;;;;14.93;5.67;;;23.30;99.90;;;;;;5015701;28;20174;-42
2023/10/13 11:44:43;;;;;;;18.17;5.63;;;23.20;99.90;;;;;;5015390;28;20636;-44
2023/10/13 11:47:32;;;;;;;16.10;4.60;;;23.20;99.90;;;;;;4999424;28;20208;-40
2023/10/13 11:49:58;;;;;;;14.23;5.10;;;23.20;99.90;;;;;;5014371;28;20217;-44
2023/10/13 11:52:44;;;;;;;21.20;5.47;;;23.10;99.90;;;;;;4998128;28;20192;-42
2023/10/13 11:58:41;;;;;;;16.50;5.10;;;23.10;99.90;;;;;;5015069;28;20196;-43
2023/10/13 12:04:30;;;;;;;20.80;4.93;;;23.10;99.90;;;;;;5014930;28;20213;-42
2023/10/13 12:07:48;;;;;;;13.40;5.77;;;23.00;99.90;;;;;;5015349;28;20213;-44
2023/10/13 12:17:10;;;;;;;11.67;4.77;;;23.00;99.90;;;;;;5014337;28;20201;-43
2023/10/13 12:19:38;;;;;;;16.27;5.27;;;23.00;99.20;;;;;;5013848;28;20280;-43
2023/10/13 12:22:09;;;;;;;16.43;5.20;;;23.00;99.90;;;;;;5014685;28;20243;-44
2023/10/13 12:24:53;;;;;;;17.00;4.83;;;23.00;89.90;;;;;;4996269;28;20603;-43
2023/10/13 12:49:14;;;;;;;16.70;5.10;;;22.90;91.80;;;;;;5014703;28;20534;-44
2023/10/13 12:51:40;;;;;;;19.27;4.97;;;22.90;89.70;;;;;;5013881;28;20205;-42
2023/10/13 12:54:23;;;;;;;17.87;4.43;;;22.90;92.40;;;;;;4996539;28;20177;-42
2023/10/13 12:56:56;;;;;;;14.10;5.27;;;22.90;94.70;;;;;;4999073;28;20162;-40
2023/10/13 12:59:26;;;;;;;17.80;5.03;;;22.90;92.70;;;;;;5014410;28;20505;-43
2023/10/13 13:02:06;;;;;;;18.50;5.30;;;22.90;91.50;;;;;;5014414;28;20162;-43
2023/10/13 13:04:38;;;;;;;14.87;5.07;;;22.90;95.00;;;;;;4995128;28;20193;-42
2023/10/13 13:10:34;;;;;;;15.47;4.57;;;22.90;89.90;;;;;;5013642;28;20673;-47
2023/10/13 13:13:01;;;;;;;14.83;4.40;;;23.00;88.00;;;;;;5013737;28;20157;-47
2023/10/13 13:15:27;;;;;;;14.90;4.77;;;23.00;87.00;;;;;;4996317;28;20189;-47
2023/10/13 13:17:53;;;;;;;23.27;5.07;;;23.00;88.60;;;;;;5013670;28;20178;-47
2023/10/13 13:20:29;;;;;;;22.10;5.27;;;23.00;95.60;;;;;;5013454;28;20220;-48
2023/10/13 13:22:55;;;;;;;17.03;4.80;;;22.90;93.10;;;;;;5013884;28;20562;-48
2023/10/13 13:25:30;;;;;;;15.40;4.50;;;22.80;88.60;;;;;;5013737;28;20553;-48
2023/10/13 13:28:04;;;;;;;12.20;4.97;;;22.80;92.00;;;;;;5013615;28;20212;-45
2023/10/13 13:30:34;;;;;;;23.03;5.13;;;22.70;94.50;;;;;;5013717;28;20670;-47
2023/10/13 13:33:10;;;;;;;18.87;4.80;;;22.60;94.60;;;;;;4980077;28;20197;-48
2023/10/13 13:35:42;;;;;;;17.93;5.43;;;22.60;94.30;;;;;;5013791;28;20157;-47
2023/10/13 13:38:22;;;;;;;20.07;5.43;;;22.50;95.00;;;;;;4997412;28;20200;-47
2023/10/13 13:40:54;;;;;;;13.13;4.40;;;22.50;98.60;;;;;;5017798;28;20276;-47
2023/10/13 13:43:37;;;;;;;19.23;4.90;;;22.50;94.10;;;;;;5000762;28;20178;-47
2023/10/13 13:46:09;;;;;;;16.57;4.90;;;22.50;95.80;;;;;;5017765;28;20162;-47
2023/10/13 13:48:38;;;;;;;17.77;4.83;;;22.50;95.60;;;;;;5017707;28;20165;-48
2023/10/13 13:51:12;;;;;;;18.10;4.73;;;22.50;95.70;;;;;;5017143;28;20205;-48
2023/10/13 13:53:44;;;;;;;20.83;4.87;;;22.50;95.00;;;;;;5001216;28;20166;-47
2023/10/13 13:56:18;;;;;;;16.30;4.53;;;22.40;92.50;;;;;;5017407;28;20204;-47
2023/10/13 13:58:53;;;;;;;15.43;4.60;;;22.30;96.00;;;;;;5017570;28;20180;-47
2023/10/13 14:01:25;;;;;;;16.93;4.33;;;22.30;92.90;;;;;;5018275;28;20201;-47
2023/10/13 14:03:56;;;;;;;12.43;5.13;;;22.20;97.00;;;;;;5001666;28;20177;-47
2023/10/13 14:06:26;;;;;;;9.07;4.33;;;22.20;96.40;;;;;;5018045;28;20182;-47
2023/10/13 14:08:59;;;;;;;21.17;4.57;;;22.20;96.50;;;;;;4984244;28;20203;-48
2023/10/13 14:16:53;;;;;;;17.03;4.97;;;22.00;97.10;;;;;;5001519;28;20504;-47
2023/10/13 14:19:26;;;;;;;11.93;4.73;;;22.00;97.50;;;;;;5017559;28;20244;-48
2023/10/13 14:21:57;;;;;;;15.53;5.17;;;21.90;99.80;;;;;;5017910;28;20198;-47
2023/10/13 14:24:33;;;;;;;12.97;5.20;;;21.90;94.70;;;;;;5017464;28;20162;-46
2023/10/13 14:27:07;;;;;;;16.90;4.70;;;21.90;91.60;;;;;;5016955;28;20220;-47
2023/10/13 14:29:40;;;;;;;19.47;4.83;;;21.80;93.40;;;;;;5016778;28;20196;-48
2023/10/13 14:32:12;;;;;;;19.10;5.37;;;21.80;94.60;;;;;;5016722;28;20201;-47
2023/10/13 14:34:43;;;;;;;9.50;4.33;;;21.70;95.50;;;;;;5016425;28;20622;-48
2023/10/13 14:37:13;;;;;;;17.37;4.83;;;21.80;98.30;;;;;;5016506;28;20249;-47
2023/10/13 14:39:40;;;;;;;14.33;4.60;;;21.70;98.40;;;;;;5016243;28;20201;-49
2023/10/13 14:42:05;;;;;;;14.27;4.50;;;21.60;93.50;;;;;;5016565;28;20232;-48
2023/10/13 14:44:36;;;;;;;16.00;4.37;;;21.60;94.90;;;;;;5016287;28;20194;-48
2023/10/13 14:47:08;;;;;;;16.77;5.53;;;21.60;95.10;;;;;;4998794;28;20264;-48
2023/10/13 14:49:35;;;;;;;17.37;5.03;;;21.60;96.10;;;;;;5015403;28;20716;-47
2023/10/13 14:52:01;;;;;;;13.07;4.93;;;21.50;96.20;;;;;;5016286;28;20215;-46
2023/10/13 14:54:34;;;;;;;9.87;4.50;;;21.40;93.70;;;;;;5016444;28;20205;-48
2023/10/13 14:57:01;;;;;;;12.53;4.87;;;21.40;96.80;;;;;;4999678;28;20162;-49
2023/10/13 14:59:32;;;;;;;12.10;4.43;;;21.40;97.70;;;;;;4998520;28;20649;-48
2023/10/13 15:02:01;;;;;;;16.03;5.03;;;21.30;99.10;;;;;;5016402;28;20188;-49
2023/10/13 15:04:28;;;;;;;15.03;4.63;;;21.30;98.90;;;;;;5016342;28;20189;-48
2023/10/13 15:06:56;;;;;;;13.53;4.63;;;21.20;92.50;;;;;;4998830;28;20190;-46
2023/10/13 15:09:25;;;;;;;11.43;4.33;;;21.20;93.60;;;;;;5015320;28;20192;-47
2023/10/13 15:11:54;;;;;;;10.33;4.70;;;21.20;96.90;;;;;;4998964;28;20260;-47
2023/10/13 15:14:23;;;;;;;15.77;5.33;;;21.20;95.00;;;;;;5015876;28;20170;-46
2023/10/13 15:16:49;;;;;;;15.00;4.50;;;21.10;97.50;;;;;;5015656;28;20265;-48
2023/10/13 15:19:18;;;;;;;13.40;4.53;;;21.10;94.50;;;;;;4981818;28;20209;-47
2023/10/13 15:21:49;;;;;;;13.40;5.53;;;21.10;92.20;;;;;;5015829;28;20264;-47
2023/10/13 15:24:15;;;;;;;12.33;4.97;;;21.10;93.90;;;;;;5015555;28;20174;-48
2023/10/13 15:26:52;;;;;;;10.27;4.67;;;21.10;92.20;;;;;;4997829;28;20232;-48
2023/10/13 15:29:25;;;;;;;16.20;5.10;;;21.10;93.50;;;;;;5015665;28;20173;-48
2023/10/13 15:34:31;;;;;;;14.77;4.00;;;21.10;93.70;;;;;;5015952;28;20164;-47
2023/10/13 15:36:58;;;;;;;10.57;4.47;;;21.00;92.40;;;;;;5015320;28;20227;-47
2023/10/13 15:39:28;;;;;;;7.57;4.40;;;21.00;92.40;;;;;;4998110;28;20182;-47
2023/10/13 15:41:59;;;;;;;12.37;4.20;;;21.00;89.90;;;;;;5015191;28;20201;-48
2023/10/13 15:44:29;;;;;;;13.30;4.60;;;21.00;85.90;;;;;;5015440;28;20173;-47
2023/10/13 15:46:56;;;;;;;10.60;4.33;;;20.90;91.80;;;;;;4997576;28;20201;-48
2023/10/13 15:49:23;;;;;;;16.67;4.33;;;20.90;91.20;;;;;;5014543;28;20273;-47
2023/10/13 15:51:49;;;;;;;10.73;4.13;;;20.80;93.00;;;;;;4981717;28;20630;-47
2023/10/13 15:54:18;;;;;;;10.07;4.40;;;20.80;93.40;;;;;;4997333;28;20273;-47
2023/10/13 15:56:48;;;;;;;14.17;4.67;;;20.80;93.50;;;;;;5014902;28;20186;-47
2023/10/13 15:59:15;;;;;;;13.43;4.63;;;20.70;93.70;;;;;;5014004;28;20591;-48
2023/10/13 16:01:41;;;;;;;10.67;4.27;;;20.70;95.20;;;;;;5014568;28;20572;-46
2023/10/13 16:07:32;;;;;;;14.33;4.90;;;20.60;96.70;;;;;;5014726;28;20161;-46
2023/10/13 16:10:00;;;;;;;7.63;3.77;;;20.60;94.50;;;;;;4997823;28;20224;-48
2023/10/13 16:12:28;;;;;;;11.57;4.27;;;20.50;92.80;;;;;;4997184;28;20177;-42
2023/10/13 16:14:57;;;;;;;12.03;4.73;;;20.50;93.70;;;;;;5014609;28;20178;-43
2023/10/13 16:17:24;;;;;;;9.20;3.77;;;20.40;95.40;;;;;;4997864;28;20189;-44
2023/10/13 16:19:53;;;;;;;7.87;4.27;;;20.40;95.10;;;;;;4996737;28;20229;-43
2023/10/13 16:22:19;;;;;;;11.63;4.70;;;20.40;95.40;;;;;;5014762;28;20244;-43
2023/10/13 16:24:53;;;;;;;11.23;4.63;;;20.40;95.10;;;;;;4996932;28;20641;-43
2023/10/13 16:27:23;;;;;;;10.00;4.30;;;20.40;95.00;;;;;;5014499;28;20162;-43
2023/10/13 16:29:54;;;;;;;11.23;4.77;;;20.40;98.20;;;;;;5014691;28;20677;-44
2023/10/13 16:32:20;;;;;;;12.03;4.07;;;20.30;97.30;;;;;;5014591;28;20201;-43
2023/10/13 16:34:46;;;;;;;9.07;3.90;;;20.30;97.10;;;;;;5014182;28;20549;-43
2023/10/13 16:37:17;;;;;;;10.87;4.13;;;20.30;98.20;;;;;;5014512;28;20683;-41
2023/10/13 16:39:44;;;;;;;11.20;4.47;;;20.20;92.70;;;;;;5014348;28;20202;-44
2023/10/13 16:42:12;;;;;;;10.33;4.00;;;20.20;93.70;;;;;;4995156;28;20244;-43
2023/10/13 16:44:38;;;;;;;11.83;4.57;;;20.20;95.20;;;;;;5014471;28;20174;-42
2023/10/13 16:47:04;;;;;;;12.27;3.40;;;20.20;93.20;;;;;;4996718;28;20216;-44
2023/10/13 16:49:30;;;;;;;13.73;4.17;;;20.20;94.50;;;;;;5014016;28;20186;-43
2023/10/13 16:51:56;;;;;;;12.67;3.93;;;20.20;93.60;;;;;;4996594;28;20206;-43
2023/10/13 16:54:21;;;;;;;12.70;4.67;;;20.10;92.60;;;;;;5014560;28;20582;-42